Time;durP1;ratioP1;P1;durP2;ratioP2;P2;SDS_P1;SDS_P2;PMS_P1;PMS_P2;Temp;Humidity;BMP_temperature;BMP_pressure;BME280_temperature;BME280_humidity;BME280_pressure;Samples;Min_cycle;Max_cycle;Signal;HPM_P1;HPM_P2
2023/04/28 00:02:06;;;;;;;10.65;6.95;;;5.40;99.90;;;;;;4877011;29;20467;-87
2023/04/28 00:04:32;;;;;;;10.35;7.45;;;5.30;99.90;;;;;;4878100;29;20052;-87
2023/04/28 00:06:58;;;;;;;11.55;7.18;;;5.20;99.90;;;;;;4864574;29;20140;-87
2023/04/28 00:09:24;;;;;;;14.88;8.43;;;5.60;99.90;;;;;;4880303;29;20081;-87
2023/04/28 00:11:49;;;;;;;13.02;9.30;;;5.20;99.90;;;;;;4868441;29;20489;-87
2023/04/28 00:14:16;;;;;;;9.95;7.57;;;5.60;99.90;;;;;;4872097;29;20090;-87
2023/04/28 00:16:42;;;;;;;12.95;7.75;;;5.10;99.90;;;;;;4865100;29;20096;-88
2023/04/28 00:19:07;;;;;;;10.93;8.18;;;5.10;99.90;;;;;;4872611;29;20485;-88
2023/04/28 00:21:33;;;;;;;12.48;8.82;;;5.50;99.90;;;;;;4863005;29;20148;-88
2023/04/28 00:23:59;;;;;;;10.65;7.97;;;5.20;99.90;;;;;;4885493;29;20474;-87
2023/04/28 00:26:25;;;;;;;13.85;8.40;;;5.70;99.90;;;;;;4880012;29;20413;-87
2023/04/28 00:28:50;;;;;;;12.93;8.48;;;5.00;99.90;;;;;;4881262;29;20063;-88
2023/04/28 00:31:16;;;;;;;11.27;8.05;;;4.90;99.90;;;;;;4880253;29;20103;-88
2023/04/28 00:33:43;;;;;;;10.90;8.32;;;4.90;99.90;;;;;;4881697;29;20056;-88
2023/04/28 00:36:10;;;;;;;13.05;8.35;;;4.90;99.90;;;;;;4880712;29;20613;-88
2023/04/28 00:38:35;;;;;;;13.32;7.80;;;4.90;99.90;;;;;;4880995;29;20043;-88
2023/04/28 00:41:01;;;;;;;12.45;8.07;;;4.90;99.90;;;;;;4853810;29;20056;-87
2023/04/28 00:43:27;;;;;;;13.45;8.30;;;5.50;99.90;;;;;;4877590;29;20576;-87
2023/04/28 00:45:53;;;;;;;9.48;7.70;;;5.40;99.90;;;;;;4907405;29;20505;-87
2023/04/28 00:48:19;;;;;;;11.95;8.18;;;5.50;99.90;;;;;;4880709;29;20094;-88
2023/04/28 00:50:46;;;;;;;12.32;8.10;;;5.50;99.90;;;;;;4865635;29;20049;-88
2023/04/28 00:53:13;;;;;;;9.75;7.90;;;5.00;99.90;;;;;;4876643;29;20819;-86
2023/04/28 00:55:39;;;;;;;13.60;8.20;;;4.80;99.90;;;;;;4876992;29;20063;-87
2023/04/28 00:58:06;;;;;;;18.13;7.93;;;4.80;99.90;;;;;;4870356;29;20052;-87
2023/04/28 01:00:32;;;;;;;10.63;7.95;;;4.70;99.90;;;;;;4879600;29;20052;-87
2023/04/28 01:02:58;;;;;;;12.02;7.80;;;4.70;99.90;;;;;;4880948;29;20067;-87
2023/04/28 01:05:25;;;;;;;11.20;7.70;;;4.90;99.90;;;;;;4878463;29;20437;-86
2023/04/28 01:07:51;;;;;;;11.15;7.57;;;4.90;99.90;;;;;;4872496;29;20045;-88
2023/04/28 01:10:18;;;;;;;10.38;7.63;;;5.20;99.90;;;;;;4863594;29;20103;-88
2023/04/28 01:12:44;;;;;;;12.38;7.63;;;4.70;99.90;;;;;;4871459;29;20071;-88
2023/04/28 01:15:15;;;;;;;18.50;7.68;;;5.20;99.90;;;;;;4876477;29;20080;-88
2023/04/28 01:17:41;;;;;;;13.70;7.90;;;5.30;99.90;;;;;;4873305;29;20048;-88
2023/04/28 01:20:08;;;;;;;10.77;7.75;;;5.20;99.90;;;;;;4865436;29;20100;-87
2023/04/28 01:22:34;;;;;;;10.52;7.82;;;4.70;99.90;;;;;;4880016;29;20055;-88
2023/04/28 01:24:59;;;;;;;14.05;8.05;;;4.90;99.90;;;;;;4866166;29;20048;-87
2023/04/28 01:27:25;;;;;;;13.93;8.63;;;5.20;99.90;;;;;;4862134;29;20049;-86
2023/04/28 01:29:51;;;;;;;10.13;7.80;;;5.20;99.90;;;;;;4865909;29;20128;-86
2023/04/28 01:32:17;;;;;;;11.90;8.23;;;5.00;99.90;;;;;;4871008;29;20135;-88
2023/04/28 01:34:42;;;;;;;12.02;7.80;;;5.30;99.90;;;;;;4886880;29;20052;-87
2023/04/28 01:37:08;;;;;;;11.65;8.38;;;4.70;99.90;;;;;;4871982;29;20052;-87
2023/04/28 01:39:34;;;;;;;12.85;8.48;;;4.80;99.90;;;;;;4860106;29;20052;-87
2023/04/28 01:42:01;;;;;;;13.55;8.30;;;4.80;99.90;;;;;;4853034;29;20091;-87
2023/04/28 01:44:26;;;;;;;13.18;8.88;;;4.90;99.90;;;;;;4880118;29;20048;-87
2023/04/28 01:46:52;;;;;;;13.57;8.20;;;4.80;99.90;;;;;;4879229;29;20052;-87
2023/04/28 01:49:18;;;;;;;15.70;8.55;;;5.30;99.90;;;;;;4867233;29;20103;-87
2023/04/28 01:51:44;;;;;;;12.52;8.48;;;5.10;99.90;;;;;;4878830;29;20104;-88
2023/04/28 01:54:10;;;;;;;14.07;8.80;;;5.30;99.90;;;;;;4876158;29;20177;-87
2023/04/28 01:56:36;;;;;;;14.98;9.05;;;4.90;99.90;;;;;;4857885;29;20052;-88
2023/04/28 01:59:01;;;;;;;13.07;8.88;;;5.10;99.90;;;;;;4875347;29;20040;-87
2023/04/28 02:01:27;;;;;;;11.77;7.93;;;5.40;99.90;;;;;;4868899;29;20040;-86
2023/04/28 02:03:54;;;;;;;14.80;8.80;;;5.10;99.90;;;;;;4873845;29;20044;-88
2023/04/28 02:06:20;;;;;;;12.85;8.85;;;5.00;99.90;;;;;;4886462;29;20044;-88
2023/04/28 02:08:45;;;;;;;13.32;9.30;;;5.00;99.90;;;;;;4876394;29;20520;-88
2023/04/28 02:11:11;;;;;;;14.35;9.73;;;5.00;99.90;;;;;;4870027;29;20052;-88
2023/04/28 02:13:37;;;;;;;20.83;10.32;;;5.20;99.90;;;;;;4878298;29;20474;-88
2023/04/28 02:16:03;;;;;;;13.93;9.93;;;5.10;99.90;;;;;;4876141;29;20108;-89
2023/04/28 02:18:29;;;;;;;16.73;10.27;;;5.10;99.90;;;;;;4863740;29;20040;-88
2023/04/28 02:20:54;;;;;;;17.38;11.23;;;5.60;99.90;;;;;;4860914;29;20052;-88
2023/04/28 02:23:20;;;;;;;17.75;11.27;;;5.50;99.90;;;;;;4865997;29;20107;-88
2023/04/28 02:25:46;;;;;;;17.25;11.88;;;5.30;99.90;;;;;;4876727;29;20520;-87
2023/04/28 02:28:12;;;;;;;20.55;12.55;;;5.50;99.90;;;;;;4863013;29;20036;-88
2023/04/28 02:30:37;;;;;;;18.67;12.07;;;6.10;99.90;;;;;;4868589;29;20049;-88
2023/04/28 02:33:03;;;;;;;21.67;13.10;;;5.20;99.90;;;;;;4866964;29;20048;-89
2023/04/28 02:35:29;;;;;;;19.33;13.25;;;5.20;99.90;;;;;;4878993;29;20052;-88
2023/04/28 02:37:54;;;;;;;20.13;12.98;;;5.40;99.90;;;;;;4870119;29;20047;-88
2023/04/28 02:40:20;;;;;;;18.20;13.27;;;5.20;99.90;;;;;;4872928;29;20044;-88
2023/04/28 02:42:46;;;;;;;23.23;13.05;;;5.20;99.90;;;;;;4864372;29;20036;-88
2023/04/28 02:45:11;;;;;;;23.33;14.43;;;5.40;99.90;;;;;;4872610;29;20103;-87
2023/04/28 02:47:37;;;;;;;20.85;14.40;;;5.20;99.90;;;;;;4879567;29;20134;-87
2023/04/28 02:50:03;;;;;;;20.73;13.60;;;5.30;99.90;;;;;;4863064;29;20110;-88
2023/04/28 02:52:29;;;;;;;18.95;13.88;;;5.20;99.90;;;;;;4863344;29;20052;-88
2023/04/28 02:54:56;;;;;;;22.48;14.65;;;5.40;99.90;;;;;;4879559;29;20045;-88
2023/04/28 02:57:22;;;;;;;19.33;14.30;;;5.90;99.90;;;;;;4880502;29;20036;-89
2023/04/28 02:59:48;;;;;;;18.90;14.45;;;5.50;99.90;;;;;;4873023;29;20084;-88
2023/04/28 03:02:14;;;;;;;24.95;15.43;;;5.60;99.90;;;;;;4867933;29;20100;-88
2023/04/28 03:04:40;;;;;;;22.90;14.80;;;6.00;99.90;;;;;;4897247;29;20047;-88
2023/04/28 03:07:06;;;;;;;23.27;14.60;;;5.30;99.90;;;;;;4878748;29;20417;-88
2023/04/28 03:09:32;;;;;;;24.33;16.08;;;6.10;99.90;;;;;;4868955;29;20055;-88
2023/04/28 03:11:57;;;;;;;26.17;16.92;;;6.10;99.90;;;;;;4865599;29;20040;-87
2023/04/28 03:14:23;;;;;;;24.48;16.17;;;5.70;99.90;;;;;;4882480;29;20469;-88
2023/04/28 03:16:49;;;;;;;25.65;17.40;;;5.40;99.90;;;;;;4878264;29;20057;-88
2023/04/28 03:19:15;;;;;;;27.30;16.33;;;5.90;99.90;;;;;;4862939;29;20489;-88
2023/04/28 03:21:40;;;;;;;27.35;17.30;;;5.40;99.90;;;;;;4866088;29;20051;-87
2023/04/28 03:24:06;;;;;;;22.95;17.35;;;5.40;99.90;;;;;;4882267;29;20144;-87
2023/04/28 03:26:32;;;;;;;25.92;17.52;;;5.40;99.90;;;;;;4865635;29;20385;-88
2023/04/28 03:28:58;;;;;;;25.77;17.63;;;6.30;99.90;;;;;;4873223;29;20099;-87
2023/04/28 03:31:24;;;;;;;25.42;16.92;;;5.80;99.90;;;;;;4881410;29;20036;-88
2023/04/28 03:33:50;;;;;;;25.92;17.80;;;6.50;99.90;;;;;;4857169;29;20056;-88
2023/04/28 03:36:16;;;;;;;26.80;17.30;;;5.50;99.90;;;;;;4867307;29;20138;-88
2023/04/28 03:38:43;;;;;;;26.40;17.27;;;5.90;99.90;;;;;;4880234;29;20055;-89
2023/04/28 03:41:08;;;;;;;24.13;15.85;;;5.40;99.90;;;;;;4865720;29;20417;-89
2023/04/28 03:43:36;;;;;;;24.23;17.70;;;5.40;99.90;;;;;;4862705;29;20057;-88
2023/04/28 03:46:03;;;;;;;26.55;16.95;;;5.40;99.90;;;;;;4877776;29;20080;-89
2023/04/28 03:48:29;;;;;;;32.25;17.30;;;5.40;99.90;;;;;;4872783;29;20040;-88
2023/04/28 03:50:54;;;;;;;26.08;17.17;;;6.20;99.90;;;;;;4874278;29;20049;-88
2023/04/28 03:53:20;;;;;;;30.00;16.60;;;5.40;99.90;;;;;;4863219;29;20465;-89
2023/04/28 03:55:46;;;;;;;24.42;15.95;;;5.40;99.90;;;;;;4876599;29;20052;-88
2023/04/28 03:58:12;;;;;;;24.63;17.15;;;5.30;99.90;;;;;;4863217;29;20067;-88
2023/04/28 04:00:37;;;;;;;27.33;17.25;;;6.00;99.90;;;;;;4875249;29;20052;-88
2023/04/28 04:03:03;;;;;;;23.48;16.77;;;5.30;99.90;;;;;;4854217;29;20053;-88
2023/04/28 04:05:29;;;;;;;27.52;17.02;;;5.90;99.90;;;;;;4864645;29;20555;-88
2023/04/28 04:07:55;;;;;;;27.83;17.48;;;5.90;99.90;;;;;;4878193;29;20071;-88
2023/04/28 04:10:20;;;;;;;25.05;16.63;;;5.60;99.90;;;;;;4879991;29;20096;-87
2023/04/28 04:12:46;;;;;;;24.40;16.65;;;5.50;99.90;;;;;;4881017;29;20506;-87
2023/04/28 04:15:12;;;;;;;28.55;17.10;;;5.30;99.90;;;;;;4878010;29;20078;-88
2023/04/28 04:17:38;;;;;;;24.77;16.65;;;5.30;99.90;;;;;;4863452;29;20052;-87
2023/04/28 04:20:04;;;;;;;23.30;16.65;;;5.30;99.90;;;;;;4875439;29;20040;-89
2023/04/28 04:22:30;;;;;;;24.67;17.17;;;5.30;99.90;;;;;;4871649;29;20063;-88
2023/04/28 04:24:55;;;;;;;23.48;16.70;;;5.30;99.90;;;;;;4863908;29;20044;-88
2023/04/28 04:27:21;;;;;;;24.50;17.10;;;5.70;99.90;;;;;;4861879;29;20047;-86
2023/04/28 04:29:47;;;;;;;24.75;16.00;;;5.30;99.90;;;;;;4877303;29;20084;-87
2023/04/28 04:32:12;;;;;;;22.48;15.88;;;5.60;99.90;;;;;;4871331;29;20119;-88
2023/04/28 04:34:38;;;;;;;22.83;16.00;;;5.40;99.90;;;;;;4878135;29;20048;-87
2023/04/28 04:37:04;;;;;;;28.13;17.40;;;5.60;99.90;;;;;;4866656;29;20048;-88
2023/04/28 04:39:30;;;;;;;24.10;16.83;;;6.10;99.90;;;;;;4866057;29;20055;-89
2023/04/28 04:41:56;;;;;;;24.08;16.23;;;5.40;99.90;;;;;;4871682;29;20077;-87
2023/04/28 04:44:22;;;;;;;27.95;16.42;;;6.00;99.90;;;;;;4876544;29;20052;-88
2023/04/28 04:46:48;;;;;;;25.73;16.45;;;5.40;99.90;;;;;;4862184;29;20036;-87
2023/04/28 04:49:13;;;;;;;24.45;16.45;;;5.40;99.90;;;;;;4877138;29;20044;-88
2023/04/28 04:51:39;;;;;;;23.33;15.93;;;6.10;99.90;;;;;;4895205;29;20052;-87
2023/04/28 04:54:05;;;;;;;25.02;17.15;;;5.40;99.90;;;;;;4880844;29;20048;-88
2023/04/28 04:56:30;;;;;;;26.30;16.83;;;5.50;99.90;;;;;;4868745;29;20449;-88
2023/04/28 04:58:56;;;;;;;26.40;16.50;;;5.50;99.90;;;;;;4874391;29;20044;-88
2023/04/28 05:01:22;;;;;;;24.60;15.43;;;6.10;99.90;;;;;;4861432;29;20044;-88
2023/04/28 05:03:47;;;;;;;21.45;15.45;;;5.50;99.90;;;;;;4879410;29;20056;-87
2023/04/28 05:06:13;;;;;;;23.77;15.73;;;5.60;99.90;;;;;;4878651;29;20050;-88
2023/04/28 05:08:39;;;;;;;22.70;15.52;;;6.50;99.90;;;;;;4880474;29;20559;-87
2023/04/28 05:11:05;;;;;;;21.08;14.93;;;6.40;99.90;;;;;;4880051;29;20050;-88
2023/04/28 05:13:30;;;;;;;20.20;14.63;;;5.60;99.90;;;;;;4883571;29;20075;-88
2023/04/28 05:15:56;;;;;;;26.20;15.70;;;5.60;99.90;;;;;;4876877;29;20084;-87
2023/04/28 05:18:22;;;;;;;23.80;15.48;;;5.70;99.90;;;;;;4877991;29;20481;-85
2023/04/28 05:20:48;;;;;;;24.23;13.68;;;5.60;99.90;;;;;;4877018;29;20040;-88
2023/04/28 05:23:13;;;;;;;22.65;14.45;;;6.80;99.90;;;;;;4878878;29;20040;-88
2023/04/28 05:25:39;;;;;;;22.42;13.68;;;5.70;99.90;;;;;;4876953;29;20380;-87
2023/04/28 05:28:08;;;;;;;21.10;13.82;;;6.40;99.90;;;;;;4857333;29;20048;-88
2023/04/28 05:30:34;;;;;;;19.58;14.02;;;5.80;99.90;;;;;;4868109;29;20504;-88
2023/04/28 05:33:00;;;;;;;20.88;13.32;;;5.80;99.90;;;;;;4870950;29;20052;-88
2023/04/28 05:35:26;;;;;;;18.10;12.63;;;6.60;99.90;;;;;;4872556;29;20088;-88
2023/04/28 05:37:51;;;;;;;20.90;13.20;;;5.80;99.90;;;;;;4868770;29;20145;-88
2023/04/28 05:40:17;;;;;;;18.25;12.77;;;5.90;99.90;;;;;;4858724;29;20052;-87
2023/04/28 05:42:43;;;;;;;18.15;12.18;;;6.00;99.90;;;;;;4861468;29;20100;-88
2023/04/28 05:45:10;;;;;;;17.27;13.05;;;5.90;99.90;;;;;;4862773;29;20056;-89
2023/04/28 05:47:35;;;;;;;15.05;11.52;;;5.90;99.90;;;;;;4876035;29;20054;-86
2023/04/28 05:50:02;;;;;;;19.48;11.27;;;6.00;99.90;;;;;;4858609;29;20037;-87
2023/04/28 05:52:27;;;;;;;17.45;11.90;;;6.20;99.90;;;;;;4878324;29;20401;-87
2023/04/28 05:54:53;;;;;;;18.33;12.82;;;6.10;99.90;;;;;;4876375;29;20052;-87
2023/04/28 05:57:19;;;;;;;28.42;11.98;;;6.10;99.90;;;;;;4861247;29;20059;-87
2023/04/28 05:59:45;;;;;;;21.50;11.57;;;6.10;99.90;;;;;;4859417;29;20086;-87
2023/04/28 06:02:11;;;;;;;21.80;11.77;;;6.20;99.90;;;;;;4854907;29;20100;-88
2023/04/28 06:04:38;;;;;;;17.10;11.93;;;6.20;99.90;;;;;;4861559;29;20131;-88
2023/04/28 06:07:03;;;;;;;16.55;12.40;;;6.90;99.90;;;;;;4861235;29;20100;-87
2023/04/28 06:09:29;;;;;;;18.27;11.93;;;6.20;99.90;;;;;;4877195;29;20452;-87
2023/04/28 06:11:55;;;;;;;17.90;11.02;;;6.90;99.90;;;;;;4871546;29;20049;-88
2023/04/28 06:14:22;;;;;;;17.67;11.35;;;6.30;99.90;;;;;;4862296;29;20127;-88
2023/04/28 06:16:48;;;;;;;16.70;11.75;;;6.30;99.90;;;;;;4881152;29;20184;-88
2023/04/28 06:19:14;;;;;;;15.00;10.98;;;6.30;99.90;;;;;;4865227;29;20135;-87
2023/04/28 06:21:40;;;;;;;17.67;10.98;;;6.40;99.90;;;;;;4866664;29;20473;-88
2023/04/28 06:24:06;;;;;;;18.92;11.35;;;7.10;99.90;;;;;;4859578;29;20116;-88
2023/04/28 06:26:32;;;;;;;15.45;11.15;;;6.40;99.90;;;;;;4873008;29;20044;-87
2023/04/28 06:28:57;;;;;;;15.15;10.90;;;6.40;99.90;;;;;;4875741;29;20052;-87
2023/04/28 06:31:23;;;;;;;18.83;11.93;;;6.50;99.90;;;;;;4866533;29;20049;-87
2023/04/28 06:33:49;;;;;;;20.50;11.20;;;6.60;99.90;;;;;;4863278;29;20505;-89
2023/04/28 06:36:16;;;;;;;15.57;11.00;;;6.60;99.90;;;;;;4860548;29;20148;-87
2023/04/28 06:38:43;;;;;;;17.13;11.02;;;6.70;99.90;;;;;;4870651;29;20076;-89
2023/04/28 06:41:13;;;;;;;20.00;11.73;;;6.70;99.90;;;;;;4863336;29;20041;-89
2023/04/28 06:43:39;;;;;;;18.27;10.70;;;6.70;99.90;;;;;;4867913;29;20420;-94
2023/04/28 06:46:05;;;;;;;18.55;12.13;;;7.00;99.90;;;;;;4842271;29;20107;-87
2023/04/28 06:48:30;;;;;;;20.48;11.25;;;6.90;99.90;;;;;;4864523;29;20056;-85
2023/04/28 06:50:56;;;;;;;15.82;11.30;;;7.00;99.90;;;;;;4860390;29;20375;-86
2023/04/28 06:53:22;;;;;;;19.67;12.00;;;7.90;99.90;;;;;;4847639;29;20378;-87
2023/04/28 06:55:48;;;;;;;18.13;11.25;;;7.30;99.90;;;;;;4856205;29;20132;-86
2023/04/28 06:58:14;;;;;;;18.58;11.23;;;7.20;99.90;;;;;;4858521;29;20124;-90
2023/04/28 07:00:40;;;;;;;18.83;11.98;;;7.30;99.90;;;;;;4865696;29;20058;-86
2023/04/28 07:03:05;;;;;;;17.10;10.73;;;7.40;99.90;;;;;;4870581;29;20119;-86
2023/04/28 07:05:32;;;;;;;17.15;10.95;;;7.40;99.90;;;;;;4854522;29;20116;-87
2023/04/28 07:07:58;;;;;;;18.88;11.48;;;7.50;99.90;;;;;;4868618;29;20048;-86
2023/04/28 07:10:24;;;;;;;16.08;11.18;;;7.50;99.90;;;;;;4866456;29;20104;-91
2023/04/28 07:12:51;;;;;;;16.83;11.50;;;7.90;99.90;;;;;;4883032;29;20388;-93
2023/04/28 07:15:17;;;;;;;17.70;11.55;;;7.50;99.90;;;;;;4849635;29;20053;-90
2023/04/28 07:17:43;;;;;;;18.55;11.27;;;7.60;99.90;;;;;;4859415;29;20091;-93
2023/04/28 07:28:25;;;;;;;;;;;;;;;;;;;;;
2023/04/28 07:33:57;;;;;;;19.17;10.73;;;8.20;99.90;;;;;;4861589;29;20189;-91
2023/04/28 07:36:52;;;;;;;;;;;;;;;;;;;;;
2023/04/28 07:39:51;;;;;;;17.17;9.98;;;8.30;99.90;;;;;;4871573;29;20057;-90
2023/04/28 07:42:24;;;;;;;17.92;10.32;;;8.10;99.90;;;;;;4872185;29;20134;-91
2023/04/28 07:44:52;;;;;;;15.02;10.23;;;8.30;99.90;;;;;;4879240;29;20060;-89
2023/04/28 07:47:17;;;;;;;15.80;10.55;;;8.20;99.90;;;;;;4857749;29;20140;-89
2023/04/28 07:49:43;;;;;;;20.00;11.73;;;8.20;99.90;;;;;;4868563;29;20052;-89
2023/04/28 07:52:10;;;;;;;20.60;10.38;;;8.20;99.90;;;;;;4859281;29;20058;-89
2023/04/28 07:54:36;;;;;;;16.88;10.48;;;8.20;99.90;;;;;;4859471;29;20076;-92
2023/04/28 07:57:04;;;;;;;15.15;10.85;;;8.20;99.90;;;;;;4867769;29;20079;-90
2023/04/28 07:59:33;;;;;;;17.42;10.60;;;8.20;99.90;;;;;;4869257;29;20809;-91
2023/04/28 08:02:06;;;;;;;18.33;10.23;;;8.20;99.90;;;;;;4882502;29;20123;-90
2023/04/28 08:04:38;;;;;;;18.55;10.52;;;8.30;99.90;;;;;;4862514;29;20509;-90
2023/04/28 08:07:04;;;;;;;15.30;10.85;;;8.30;99.90;;;;;;4859566;29;20097;-89
2023/04/28 08:09:51;;;;;;;19.27;11.25;;;8.40;99.90;;;;;;4859825;29;20056;-91
2023/04/28 08:12:36;;;;;;;16.48;10.85;;;8.30;99.90;;;;;;4865683;29;20132;-91
2023/04/28 08:15:02;;;;;;;17.77;11.10;;;8.50;99.90;;;;;;4872701;29;20135;-90
2023/04/28 08:17:55;;;;;;;;;;;;;;;;;;;;;
2023/04/28 08:20:37;;;;;;;;;;;;;;;;;;;;;
2023/04/28 08:24:33;;;;;;;;;;;;;;;;;;;;;
2023/04/28 08:35:06;;;;;;;18.80;10.82;;;8.60;99.90;;;;;;4759447;30;20093;-86
2023/04/28 08:37:35;;;;;;;15.60;10.30;;;8.70;99.90;;;;;;4755296;29;20442;-89
2023/04/28 08:40:08;;;;;;;19.40;12.10;;;8.70;99.90;;;;;;4769851;29;20073;-90
2023/04/28 09:17:21;;;;;;;16.70;10.30;;;9.40;99.90;;;;;;4889759;29;20428;-89
2023/04/28 09:20:43;;;;;;;;;;;9.40;99.90;;;;;;4858142;29;20055;-90
2023/04/28 09:22:44;;;;;;;15.43;9.98;;;9.50;99.90;;;;;;4865336;29;19958;-89
2023/04/28 09:25:11;;;;;;;13.85;9.43;;;9.70;99.90;;;;;;4864955;29;20123;-89
2023/04/28 09:27:55;;;;;;;14.20;10.07;;;9.90;99.90;;;;;;4884074;29;20206;-87
2023/04/28 09:30:38;;;;;;;16.20;10.20;;;10.70;99.90;;;;;;4852019;29;20121;-89
2023/04/28 09:33:05;;;;;;;14.48;10.15;;;10.10;99.90;;;;;;4862026;29;20052;-88
2023/04/28 09:35:47;;;;;;;14.02;10.32;;;10.30;99.90;;;;;;4866508;29;20048;-89
2023/04/28 09:38:34;;;;;;;14.45;9.98;;;10.40;99.90;;;;;;4862755;29;20120;-90
2023/04/28 09:41:21;;;;;;;14.73;10.05;;;10.50;99.90;;;;;;4857222;29;20049;-90
2023/04/28 09:48:07;;;;;;;16.08;9.73;;;10.70;99.90;;;;;;4901186;23;20139;-89
2023/04/28 10:01:45;;;;;;;15.93;9.07;;;11.60;99.90;;;;;;4886039;29;20072;-89
2023/04/28 10:05:12;;;;;;;;;;;;;;;;;;;;;
2023/04/28 10:07:41;;;;;;;18.00;9.55;;;12.20;99.90;;;;;;4887490;29;20111;-90
2023/04/28 10:10:13;;;;;;;17.90;9.05;;;12.40;99.90;;;;;;4849778;29;20120;-88
2023/04/28 10:12:40;;;;;;;20.60;9.45;;;12.60;99.90;;;;;;4866207;29;20222;-89
2023/04/28 10:15:08;;;;;;;14.50;8.70;;;12.70;99.90;;;;;;4860589;29;20078;-88
2023/04/28 10:17:35;;;;;;;15.70;9.32;;;12.80;99.90;;;;;;4876237;29;20056;-89
2023/04/28 10:20:26;;;;;;;17.05;8.93;;;12.80;99.90;;;;;;4867756;29;20104;-88
2023/04/28 10:23:16;;;;;;;15.02;9.32;;;13.50;99.90;;;;;;4875829;29;20425;-89
2023/04/28 10:25:47;;;;;;;13.63;8.43;;;12.90;99.90;;;;;;4860505;29;20391;-86
2023/04/28 10:28:13;;;;;;;16.17;9.45;;;12.70;99.90;;;;;;4870901;29;20111;-87
2023/04/28 10:30:39;;;;;;;12.18;8.95;;;13.00;99.90;;;;;;4874933;29;20329;-90
2023/04/28 10:33:05;;;;;;;15.57;9.38;;;13.10;99.90;;;;;;4862935;29;20104;-88
2023/04/28 10:35:31;;;;;;;15.82;8.98;;;13.20;99.90;;;;;;4862045;29;20056;-89
2023/04/28 10:38:11;;;;;;;14.38;8.27;;;13.20;99.90;;;;;;4859282;29;20045;-87
2023/04/28 10:40:42;;;;;;;12.32;8.65;;;13.10;99.90;;;;;;4855282;29;20128;-88
2023/04/28 10:43:31;;;;;;;19.05;8.93;;;13.20;99.90;;;;;;4864387;29;20045;-88
2023/04/28 10:45:58;;;;;;;12.80;8.95;;;13.40;99.90;;;;;;4875412;29;20041;-88
2023/04/28 10:49:04;;;;;;;13.73;8.48;;;13.60;99.90;;;;;;4860105;29;20105;-87
2023/04/28 10:51:42;;;;;;;15.57;9.05;;;13.70;99.90;;;;;;4858997;29;20069;-88
2023/04/28 10:54:43;;;;;;;14.40;8.57;;;13.60;99.90;;;;;;4856506;29;20045;-89
2023/04/28 10:57:17;;;;;;;12.18;8.63;;;13.70;99.90;;;;;;4845371;29;20049;-87
2023/04/28 10:59:42;;;;;;;19.00;9.25;;;13.70;99.90;;;;;;4849572;29;20129;-88
2023/04/28 11:02:35;;;;;;;16.80;8.13;;;13.60;99.90;;;;;;4843810;29;20041;-89
2023/04/28 11:05:29;;;;;;;16.42;9.52;;;13.40;99.90;;;;;;4853433;29;20057;-89
2023/04/28 11:08:37;;;;;;;12.77;9.23;;;13.20;99.90;;;;;;4859713;29;20056;-88
2023/04/28 11:11:13;;;;;;;12.93;9.07;;;13.00;99.90;;;;;;4871969;29;20069;-88
2023/04/28 11:14:47;;;;;;;15.38;9.80;;;12.90;99.90;;;;;;4883842;29;20047;-89
2023/04/28 11:25:16;;;;;;;15.63;9.70;;;12.70;99.90;;;;;;4845752;29;20049;-89
2023/04/28 11:50:48;;;;;;;14.73;11.10;;;12.50;99.90;;;;;;4849773;29;20050;-88
2023/04/28 11:53:18;;;;;;;16.10;10.75;;;12.40;99.90;;;;;;4852925;29;20055;-89
2023/04/28 11:55:44;;;;;;;16.23;10.85;;;12.60;99.90;;;;;;4832835;29;20127;-88
2023/04/28 11:58:36;;;;;;;13.63;11.48;;;12.70;99.90;;;;;;4835582;29;20126;-88
2023/04/28 12:01:10;;;;;;;18.25;9.98;;;12.90;99.90;;;;;;4855151;29;20057;-88
2023/04/28 12:03:47;;;;;;;16.95;9.98;;;12.90;99.90;;;;;;4826262;29;20101;-89
2023/04/28 12:06:18;;;;;;;16.52;10.50;;;12.90;99.90;;;;;;4824762;29;20109;-88
2023/04/28 12:08:56;;;;;;;;;;;;;;;;;;;;;
2023/04/28 12:11:29;;;;;;;21.05;11.18;;;12.90;99.90;;;;;;4855647;29;20053;-88
2023/04/28 12:14:21;;;;;;;14.48;10.40;;;12.90;99.90;;;;;;4849806;29;20080;-88
2023/04/28 12:16:59;;;;;;;18.15;10.60;;;12.90;99.90;;;;;;4829298;29;20045;-88
2023/04/28 12:19:27;;;;;;;12.38;9.98;;;12.90;99.90;;;;;;4832795;29;20056;-88
2023/04/28 12:22:01;;;;;;;14.43;10.23;;;12.90;99.90;;;;;;4845335;29;20351;-88
2023/04/28 12:24:40;;;;;;;;;;;;;;;;;;;;;
2023/04/28 12:27:30;;;;;;;;;;;;;;;;;;;;;
2023/04/28 12:30:33;;;;;;;14.70;10.07;;;12.80;99.90;;;;;;4841093;29;20117;-88
2023/04/28 12:33:03;;;;;;;14.38;10.40;;;12.70;99.90;;;;;;4856733;29;20045;-88
2023/04/28 12:35:29;;;;;;;18.25;10.55;;;12.70;99.90;;;;;;4829892;29;20060;-88
2023/04/28 12:37:57;;;;;;;15.55;10.25;;;12.50;99.90;;;;;;4849160;29;20224;-88
2023/04/28 12:43:36;;;;;;;14.05;10.02;;;12.50;99.90;;;;;;4800114;29;20079;-87
2023/04/28 12:46:15;;;;;;;;;;;;;;;;;;;;;
2023/04/28 12:49:28;;;;;;;;;;;;;;;;;;;;;
2023/04/28 12:52:36;;;;;;;;;;;;;;;;;;;;;
2023/04/28 12:55:39;;;;;;;;;;;;;;;;;;;;;
2023/04/28 12:58:31;;;;;;;15.57;10.43;;;12.30;99.90;;;;;;4797559;29;20062;-89
2023/04/28 13:01:03;;;;;;;16.52;11.07;;;12.30;99.90;;;;;;4823299;29;20071;-88
2023/04/28 13:03:34;;;;;;;17.33;11.35;;;12.40;99.90;;;;;;4854091;29;20113;-89
2023/04/28 13:06:03;;;;;;;15.00;11.35;;;12.30;99.90;;;;;;4825980;29;20054;-91
2023/04/28 13:08:32;;;;;;;16.45;11.95;;;12.40;99.90;;;;;;4835950;29;20051;-90
2023/04/28 13:11:04;;;;;;;18.00;12.50;;;12.60;99.90;;;;;;4827406;29;20053;-91
2023/04/28 13:13:30;;;;;;;18.20;12.73;;;12.70;99.90;;;;;;4822968;29;20050;-90
2023/04/28 13:15:56;;;;;;;20.52;12.57;;;12.80;99.90;;;;;;4839664;29;20053;-90
2023/04/28 13:18:25;;;;;;;22.05;12.10;;;13.00;99.90;;;;;;4820527;29;20045;-90
2023/04/28 13:20:54;;;;;;;22.17;13.40;;;13.00;99.90;;;;;;4823365;29;20132;-91
2023/04/28 13:23:20;;;;;;;17.60;12.10;;;13.00;99.90;;;;;;4813040;29;20054;-90
2023/04/28 13:25:54;;;;;;;15.52;11.45;;;13.00;99.90;;;;;;4832045;29;20045;-90
2023/04/28 13:28:30;;;;;;;;;;;;;;;;;;;;;
2023/04/28 13:31:15;;;;;;;18.23;13.20;;;12.90;99.90;;;;;;4841211;29;20687;-90
2023/04/28 13:33:41;;;;;;;16.88;12.90;;;12.80;99.90;;;;;;4863275;29;20049;-91
2023/04/28 13:36:18;;;;;;;;;;;;;;;;;;;;;
2023/04/28 13:38:55;;;;;;;18.27;12.10;;;12.70;99.90;;;;;;4845195;29;20076;-91
2023/04/28 13:41:24;;;;;;;16.42;12.20;;;12.60;99.90;;;;;;4856759;29;20041;-90
2023/04/28 13:43:53;;;;;;;21.77;12.27;;;12.60;99.90;;;;;;4834451;29;20943;-91
2023/04/28 13:46:19;;;;;;;17.42;10.95;;;12.50;99.90;;;;;;4859809;29;20060;-90
2023/04/28 13:48:51;;;;;;;16.52;11.18;;;12.50;99.90;;;;;;4854719;29;20049;-90
2023/04/28 13:51:20;;;;;;;17.33;12.05;;;12.20;99.90;;;;;;4854672;29;20053;-90
2023/04/28 13:53:52;;;;;;;14.85;12.10;;;12.40;99.90;;;;;;4847555;29;20057;-92
2023/04/28 13:56:18;;;;;;;21.08;12.80;;;12.30;99.90;;;;;;4853532;29;20057;-91
2023/04/28 13:58:44;;;;;;;18.85;12.98;;;12.30;99.90;;;;;;4848563;29;20073;-93
2023/04/28 14:01:10;;;;;;;18.08;12.77;;;12.20;99.90;;;;;;4840171;29;20077;-94
2023/04/28 14:03:36;;;;;;;18.90;13.00;;;12.20;99.90;;;;;;4852398;29;20065;-93
2023/04/28 14:06:02;;;;;;;15.75;13.23;;;12.10;99.90;;;;;;4847623;29;20053;-95
2023/04/28 14:08:28;;;;;;;19.15;13.52;;;12.10;99.90;;;;;;4842763;29;20276;-95
2023/04/28 14:10:54;;;;;;;21.60;13.85;;;12.00;99.90;;;;;;4842560;29;20554;-93
2023/04/28 14:13:20;;;;;;;20.05;14.68;;;12.00;99.90;;;;;;4854517;29;20509;-95
2023/04/28 14:15:45;;;;;;;18.92;13.77;;;11.90;99.90;;;;;;4842656;29;20509;-95
2023/04/28 14:18:13;;;;;;;19.65;14.35;;;11.90;99.90;;;;;;4843046;29;20144;-96
2023/04/28 14:20:38;;;;;;;21.60;15.80;;;11.90;99.90;;;;;;4858725;29;20049;-95
2023/04/28 14:23:04;;;;;;;18.48;14.98;;;11.90;99.90;;;;;;4844183;29;20064;-94
2023/04/28 14:25:30;;;;;;;22.60;15.77;;;11.90;99.90;;;;;;4842945;29;20064;-93
2023/04/28 14:27:56;;;;;;;20.95;15.48;;;11.90;99.90;;;;;;4843682;29;20410;-93
2023/04/28 14:30:24;;;;;;;20.45;16.25;;;11.90;99.90;;;;;;4845061;29;20049;-91
2023/04/28 14:32:50;;;;;;;22.10;16.30;;;11.90;99.90;;;;;;4872296;29;20049;-93
2023/04/28 14:35:16;;;;;;;20.73;15.52;;;11.80;99.90;;;;;;4846324;29;20386;-93
2023/04/28 14:37:43;;;;;;;19.67;16.55;;;11.90;99.90;;;;;;4855188;29;20056;-95
2023/04/28 14:40:09;;;;;;;24.48;16.95;;;11.90;99.90;;;;;;4844299;29;20049;-95
2023/04/28 14:42:36;;;;;;;23.83;17.85;;;11.80;99.90;;;;;;4846197;29;20057;-92
2023/04/28 14:45:03;;;;;;;24.63;17.45;;;11.80;99.90;;;;;;4845660;29;20050;-94
2023/04/28 14:47:30;;;;;;;26.25;18.33;;;11.80;99.90;;;;;;4845593;29;20142;-92
2023/04/28 14:49:56;;;;;;;22.63;17.92;;;11.80;99.90;;;;;;4847367;29;20119;-91
2023/04/28 14:52:24;;;;;;;26.23;18.85;;;11.80;99.90;;;;;;4855878;29;20132;-95
2023/04/28 14:54:59;;;;;;;25.30;18.15;;;11.70;99.90;;;;;;4858922;29;20050;-93